sensor_id;sensor_type;location;lat;lon;timestamp;P1;durP1;ratioP1;P2;durP2;ratioP2
24137;SDS011;17947;50.672;6.076;2022-12-04T10:53:15;7.43;;;3.53;;
24137;SDS011;17947;50.672;6.076;2022-12-04T10:55:41;7.25;;;3.28;;
24137;SDS011;17947;50.672;6.076;2022-12-04T10:58:17;6.18;;;3.20;;
24137;SDS011;17947;50.672;6.076;2022-12-04T11:00:44;6.72;;;4.00;;
24137;SDS011;17947;50.672;6.076;2022-12-04T11:03:24;5.35;;;3.15;;
24137;SDS011;17947;50.672;6.076;2022-12-04T11:05:54;4.55;;;3.15;;
24137;SDS011;17947;50.672;6.076;2022-12-04T11:08:22;5.10;;;3.30;;
24137;SDS011;17947;50.672;6.076;2022-12-04T11:11:02;4.70;;;3.33;;
24137;SDS011;17947;50.672;6.076;2022-12-04T11:13:29;4.30;;;2.92;;
24137;SDS011;17947;50.672;6.076;2022-12-04T11:15:55;7.15;;;3.00;;
24137;SDS011;17947;50.672;6.076;2022-12-04T11:21:23;4.00;;;2.95;;
24137;SDS011;17947;50.672;6.076;2022-12-04T11:23:50;4.78;;;3.40;;
24137;SDS011;17947;50.672;6.076;2022-12-04T11:26:26;4.10;;;3.20;;
24137;SDS011;17947;50.672;6.076;2022-12-04T11:28:54;5.30;;;3.13;;
24137;SDS011;17947;50.672;6.076;2022-12-04T11:31:22;5.03;;;3.50;;
24137;SDS011;17947;50.672;6.076;2022-12-04T11:33:51;4.35;;;2.95;;
24137;SDS011;17947;50.672;6.076;2022-12-04T11:38:50;6.75;;;3.45;;
24137;SDS011;17947;50.672;6.076;2022-12-04T11:41:29;6.53;;;3.40;;
24137;SDS011;17947;50.672;6.076;2022-12-04T11:43:56;4.07;;;3.20;;
24137;SDS011;17947;50.672;6.076;2022-12-04T11:46:23;5.78;;;3.50;;
24137;SDS011;17947;50.672;6.076;2022-12-04T11:48:50;3.85;;;2.90;;
24137;SDS011;17947;50.672;6.076;2022-12-04T11:56:44;4.50;;;3.28;;
24137;SDS011;17947;50.672;6.076;2022-12-04T12:07:22;4.07;;;3.08;;
24137;SDS011;17947;50.672;6.076;2022-12-04T12:12:22;4.20;;;3.45;;
24137;SDS011;17947;50.672;6.076;2022-12-04T12:17:24;4.78;;;3.33;;
24137;SDS011;17947;50.672;6.076;2022-12-04T12:20:02;4.45;;;2.83;;
24137;SDS011;17947;50.672;6.076;2022-12-04T12:22:48;4.50;;;3.13;;
24137;SDS011;17947;50.672;6.076;2022-12-04T12:30:13;3.92;;;3.13;;
24137;SDS011;17947;50.672;6.076;2022-12-04T12:38:05;4.72;;;3.10;;
24137;SDS011;17947;50.672;6.076;2022-12-04T12:40:36;4.60;;;3.05;;
24137;SDS011;17947;50.672;6.076;2022-12-04T12:43:06;5.13;;;3.28;;
24137;SDS011;17947;50.672;6.076;2022-12-04T12:45:52;4.28;;;3.20;;
24137;SDS011;17947;50.672;6.076;2022-12-04T12:48:22;5.60;;;3.20;;
24137;SDS011;17947;50.672;6.076;2022-12-04T12:50:57;6.70;;;3.30;;
24137;SDS011;17947;50.672;6.076;2022-12-04T12:53:28;4.78;;;3.15;;
24137;SDS011;17947;50.672;6.076;2022-12-04T12:55:57;4.10;;;3.22;;
24137;SDS011;17947;50.672;6.076;2022-12-04T13:01:03;4.75;;;3.53;;
24137;SDS011;17947;50.672;6.076;2022-12-04T13:06:02;4.90;;;3.40;;
24137;SDS011;17947;50.672;6.076;2022-12-04T13:08:32;4.25;;;3.15;;
24137;SDS011;17947;50.672;6.076;2022-12-04T13:13:29;5.60;;;3.65;;
24137;SDS011;17947;50.672;6.076;2022-12-04T13:18:29;4.32;;;3.30;;
24137;SDS011;17947;50.672;6.076;2022-12-04T13:20:57;6.53;;;4.30;;
24137;SDS011;17947;50.672;6.076;2022-12-04T13:29:15;6.80;;;4.65;;
24137;SDS011;17947;50.672;6.076;2022-12-04T13:31:59;7.07;;;5.03;;
24137;SDS011;17947;50.672;6.076;2022-12-04T13:42:19;7.78;;;5.47;;
24137;SDS011;17947;50.672;6.076;2022-12-04T13:44:51;7.43;;;5.13;;
24137;SDS011;17947;50.672;6.076;2022-12-04T13:47:24;7.78;;;5.40;;
24137;SDS011;17947;50.672;6.076;2022-12-04T13:49:52;8.25;;;5.28;;
24137;SDS011;17947;50.672;6.076;2022-12-04T13:52:37;8.55;;;5.65;;
24137;SDS011;17947;50.672;6.076;2022-12-04T13:55:21;10.15;;;6.38;;
24137;SDS011;17947;50.672;6.076;2022-12-04T13:57:54;9.35;;;6.45;;
24137;SDS011;17947;50.672;6.076;2022-12-04T14:00:39;9.23;;;6.07;;
24137;SDS011;17947;50.672;6.076;2022-12-04T14:05:44;12.07;;;7.25;;
24137;SDS011;17947;50.672;6.076;2022-12-04T14:10:54;10.55;;;6.70;;
24137;SDS011;17947;50.672;6.076;2022-12-04T14:13:22;12.00;;;7.22;;
24137;SDS011;17947;50.672;6.076;2022-12-04T14:15:59;12.25;;;7.55;;
24137;SDS011;17947;50.672;6.076;2022-12-04T14:18:27;10.75;;;7.25;;
24137;SDS011;17947;50.672;6.076;2022-12-04T14:21:00;11.27;;;7.82;;
24137;SDS011;17947;50.672;6.076;2022-12-04T14:26:00;12.80;;;7.82;;
24137;SDS011;17947;50.672;6.076;2022-12-04T14:33:36;13.27;;;8.20;;
24137;SDS011;17947;50.672;6.076;2022-12-04T14:36:45;11.82;;;7.93;;
24137;SDS011;17947;50.672;6.076;2022-12-04T14:38:57;14.15;;;8.52;;
24137;SDS011;17947;50.672;6.076;2022-12-04T14:41:25;12.85;;;8.93;;
24137;SDS011;17947;50.672;6.076;2022-12-04T14:43:51;13.30;;;8.55;;
24137;SDS011;17947;50.672;6.076;2022-12-04T14:49:16;13.77;;;8.77;;
24137;SDS011;17947;50.672;6.076;2022-12-04T14:54:29;12.88;;;8.32;;
24137;SDS011;17947;50.672;6.076;2022-12-04T14:57:05;13.95;;;9.23;;
24137;SDS011;17947;50.672;6.076;2022-12-04T14:59:48;14.77;;;9.10;;
24137;SDS011;17947;50.672;6.076;2022-12-04T15:02:16;13.35;;;9.10;;
24137;SDS011;17947;50.672;6.076;2022-12-04T15:04:42;13.00;;;9.13;;
24137;SDS011;17947;50.672;6.076;2022-12-04T15:09:50;13.80;;;8.48;;
24137;SDS011;17947;50.672;6.076;2022-12-04T15:12:38;14.10;;;8.95;;
24137;SDS011;17947;50.672;6.076;2022-12-04T15:17:34;11.80;;;7.88;;
24137;SDS011;17947;50.672;6.076;2022-12-04T15:20:33;12.60;;;8.65;;
24137;SDS011;17947;50.672;6.076;2022-12-04T15:22:52;13.90;;;8.48;;
24137;SDS011;17947;50.672;6.076;2022-12-04T15:25:23;10.45;;;7.93;;
24137;SDS011;17947;50.672;6.076;2022-12-04T15:27:50;13.48;;;8.27;;
24137;SDS011;17947;50.672;6.076;2022-12-04T15:30:19;12.57;;;8.32;;
24137;SDS011;17947;50.672;6.076;2022-12-04T15:32:46;10.82;;;7.72;;
24137;SDS011;17947;50.672;6.076;2022-12-04T15:35:21;12.00;;;8.45;;
24137;SDS011;17947;50.672;6.076;2022-12-04T15:37:48;10.80;;;7.60;;
24137;SDS011;17947;50.672;6.076;2022-12-04T15:40:18;12.13;;;8.05;;
24137;SDS011;17947;50.672;6.076;2022-12-04T15:42:45;11.52;;;7.75;;
24137;SDS011;17947;50.672;6.076;2022-12-04T15:50:10;11.65;;;7.25;;
24137;SDS011;17947;50.672;6.076;2022-12-04T15:52:36;11.02;;;7.13;;
24137;SDS011;17947;50.672;6.076;2022-12-04T15:55:06;12.45;;;8.23;;
24137;SDS011;17947;50.672;6.076;2022-12-04T15:57:34;10.73;;;7.38;;
24137;SDS011;17947;50.672;6.076;2022-12-04T16:00:00;11.35;;;7.20;;
24137;SDS011;17947;50.672;6.076;2022-12-04T16:02:33;10.05;;;6.88;;
24137;SDS011;17947;50.672;6.076;2022-12-04T16:10:36;10.48;;;7.18;;
24137;SDS011;17947;50.672;6.076;2022-12-04T16:13:03;9.35;;;6.45;;
24137;SDS011;17947;50.672;6.076;2022-12-04T16:15:40;9.65;;;6.38;;
24137;SDS011;17947;50.672;6.076;2022-12-04T16:18:08;10.07;;;6.70;;
24137;SDS011;17947;50.672;6.076;2022-12-04T16:20:36;9.85;;;6.38;;
24137;SDS011;17947;50.672;6.076;2022-12-04T16:23:03;9.05;;;6.75;;
24137;SDS011;17947;50.672;6.076;2022-12-04T16:25:29;10.23;;;6.63;;
24137;SDS011;17947;50.672;6.076;2022-12-04T16:27:56;8.88;;;6.13;;
24137;SDS011;17947;50.672;6.076;2022-12-04T16:30:22;8.02;;;6.00;;
24137;SDS011;17947;50.672;6.076;2022-12-04T16:32:48;9.07;;;6.55;;
24137;SDS011;17947;50.672;6.076;2022-12-04T16:35:15;11.30;;;6.68;;
24137;SDS011;17947;50.672;6.076;2022-12-04T16:37:41;10.15;;;6.25;;
24137;SDS011;17947;50.672;6.076;2022-12-04T16:40:08;9.43;;;6.30;;
24137;SDS011;17947;50.672;6.076;2022-12-04T16:42:34;10.05;;;6.30;;
24137;SDS011;17947;50.672;6.076;2022-12-04T16:45:00;10.02;;;6.45;;
24137;SDS011;17947;50.672;6.076;2022-12-04T16:47:28;9.90;;;6.53;;
24137;SDS011;17947;50.672;6.076;2022-12-04T16:49:54;7.78;;;5.85;;
24137;SDS011;17947;50.672;6.076;2022-12-04T16:52:20;8.70;;;6.10;;
24137;SDS011;17947;50.672;6.076;2022-12-04T16:54:46;8.43;;;5.63;;
24137;SDS011;17947;50.672;6.076;2022-12-04T16:57:12;8.00;;;5.57;;
24137;SDS011;17947;50.672;6.076;2022-12-04T16:59:38;8.10;;;5.38;;
24137;SDS011;17947;50.672;6.076;2022-12-04T17:02:05;8.48;;;5.00;;
24137;SDS011;17947;50.672;6.076;2022-12-04T17:04:37;7.75;;;5.72;;
24137;SDS011;17947;50.672;6.076;2022-12-04T17:07:03;7.00;;;5.07;;
24137;SDS011;17947;50.672;6.076;2022-12-04T17:09:30;7.82;;;5.13;;
24137;SDS011;17947;50.672;6.076;2022-12-04T17:11:56;8.82;;;5.80;;
24137;SDS011;17947;50.672;6.076;2022-12-04T17:14:22;8.02;;;5.45;;
24137;SDS011;17947;50.672;6.076;2022-12-04T17:16:48;8.18;;;5.15;;
24137;SDS011;17947;50.672;6.076;2022-12-04T17:19:14;8.13;;;5.53;;
24137;SDS011;17947;50.672;6.076;2022-12-04T17:21:40;10.05;;;6.35;;
24137;SDS011;17947;50.672;6.076;2022-12-04T17:24:06;7.90;;;6.32;;
24137;SDS011;17947;50.672;6.076;2022-12-04T17:26:32;9.82;;;6.32;;
24137;SDS011;17947;50.672;6.076;2022-12-04T17:28:58;9.13;;;6.13;;
24137;SDS011;17947;50.672;6.076;2022-12-04T17:31:25;9.95;;;6.22;;
24137;SDS011;17947;50.672;6.076;2022-12-04T17:33:51;8.98;;;6.45;;
24137;SDS011;17947;50.672;6.076;2022-12-04T17:36:20;11.20;;;7.03;;
24137;SDS011;17947;50.672;6.076;2022-12-04T17:38:46;10.05;;;6.70;;
24137;SDS011;17947;50.672;6.076;2022-12-04T17:41:13;10.55;;;6.88;;
24137;SDS011;17947;50.672;6.076;2022-12-04T17:43:40;10.32;;;6.72;;
24137;SDS011;17947;50.672;6.076;2022-12-04T17:46:10;8.85;;;6.30;;
24137;SDS011;17947;50.672;6.076;2022-12-04T17:48:36;10.13;;;7.00;;
24137;SDS011;17947;50.672;6.076;2022-12-04T17:51:12;11.55;;;7.93;;
24137;SDS011;17947;50.672;6.076;2022-12-04T17:53:39;11.18;;;7.57;;
24137;SDS011;17947;50.672;6.076;2022-12-04T17:56:07;10.80;;;7.55;;
24137;SDS011;17947;50.672;6.076;2022-12-04T17:58:33;12.32;;;8.40;;
24137;SDS011;17947;50.672;6.076;2022-12-04T18:01:01;12.25;;;8.52;;
24137;SDS011;17947;50.672;6.076;2022-12-04T18:03:27;14.60;;;9.02;;
24137;SDS011;17947;50.672;6.076;2022-12-04T18:05:53;13.15;;;8.70;;
24137;SDS011;17947;50.672;6.076;2022-12-04T18:08:19;14.35;;;9.07;;
24137;SDS011;17947;50.672;6.076;2022-12-04T18:10:46;12.40;;;8.68;;
24137;SDS011;17947;50.672;6.076;2022-12-04T18:13:12;13.65;;;9.65;;
24137;SDS011;17947;50.672;6.076;2022-12-04T18:15:38;13.77;;;9.48;;
24137;SDS011;17947;50.672;6.076;2022-12-04T18:18:04;12.95;;;9.00;;
24137;SDS011;17947;50.672;6.076;2022-12-04T18:20:30;11.90;;;8.48;;
24137;SDS011;17947;50.672;6.076;2022-12-04T18:22:56;13.68;;;8.65;;
24137;SDS011;17947;50.672;6.076;2022-12-04T18:25:22;12.93;;;8.30;;
24137;SDS011;17947;50.672;6.076;2022-12-04T18:27:48;12.02;;;9.00;;
24137;SDS011;17947;50.672;6.076;2022-12-04T18:30:14;13.23;;;8.70;;
24137;SDS011;17947;50.672;6.076;2022-12-04T18:32:41;11.98;;;8.40;;
24137;SDS011;17947;50.672;6.076;2022-12-04T18:35:08;13.60;;;8.98;;
24137;SDS011;17947;50.672;6.076;2022-12-04T18:37:34;13.90;;;8.55;;
24137;SDS011;17947;50.672;6.076;2022-12-04T18:40:00;10.98;;;8.13;;
24137;SDS011;17947;50.672;6.076;2022-12-04T18:42:26;12.60;;;8.70;;
24137;SDS011;17947;50.672;6.076;2022-12-04T18:44:52;12.40;;;8.43;;
24137;SDS011;17947;50.672;6.076;2022-12-04T18:47:18;10.32;;;7.55;;
24137;SDS011;17947;50.672;6.076;2022-12-04T18:49:44;11.18;;;7.78;;
24137;SDS011;17947;50.672;6.076;2022-12-04T18:52:11;12.13;;;8.07;;
24137;SDS011;17947;50.672;6.076;2022-12-04T18:54:37;10.93;;;7.47;;
24137;SDS011;17947;50.672;6.076;2022-12-04T18:57:03;12.60;;;8.00;;
24137;SDS011;17947;50.672;6.076;2022-12-04T18:59:29;11.27;;;7.95;;
24137;SDS011;17947;50.672;6.076;2022-12-04T19:01:56;11.23;;;7.40;;
24137;SDS011;17947;50.672;6.076;2022-12-04T19:04:24;10.15;;;6.70;;
24137;SDS011;17947;50.672;6.076;2022-12-04T19:06:51;12.27;;;7.65;;
24137;SDS011;17947;50.672;6.076;2022-12-04T19:09:19;13.60;;;7.65;;
24137;SDS011;17947;50.672;6.076;2022-12-04T19:11:46;11.52;;;7.35;;
24137;SDS011;17947;50.672;6.076;2022-12-04T19:14:15;12.27;;;7.50;;
24137;SDS011;17947;50.672;6.076;2022-12-04T19:16:41;11.63;;;7.05;;
24137;SDS011;17947;50.672;6.076;2022-12-04T19:19:11;14.25;;;7.15;;
24137;SDS011;17947;50.672;6.076;2022-12-04T19:21:38;11.73;;;7.00;;
24137;SDS011;17947;50.672;6.076;2022-12-04T19:24:04;10.70;;;7.20;;
24137;SDS011;17947;50.672;6.076;2022-12-04T19:26:31;11.20;;;6.80;;
24137;SDS011;17947;50.672;6.076;2022-12-04T19:28:57;10.60;;;7.13;;
24137;SDS011;17947;50.672;6.076;2022-12-04T19:31:24;11.63;;;7.53;;
24137;SDS011;17947;50.672;6.076;2022-12-04T19:33:51;11.13;;;6.97;;
24137;SDS011;17947;50.672;6.076;2022-12-04T19:36:19;10.27;;;7.13;;
24137;SDS011;17947;50.672;6.076;2022-12-04T19:38:45;9.00;;;6.45;;
24137;SDS011;17947;50.672;6.076;2022-12-04T19:41:15;11.07;;;6.60;;
24137;SDS011;17947;50.672;6.076;2022-12-04T19:43:42;9.45;;;6.45;;
24137;SDS011;17947;50.672;6.076;2022-12-04T19:46:10;9.70;;;6.22;;
24137;SDS011;17947;50.672;6.076;2022-12-04T19:48:36;9.68;;;6.45;;
24137;SDS011;17947;50.672;6.076;2022-12-04T19:51:03;9.20;;;5.78;;
24137;SDS011;17947;50.672;6.076;2022-12-04T19:53:30;11.52;;;6.53;;
24137;SDS011;17947;50.672;6.076;2022-12-04T19:55:59;9.82;;;6.35;;
24137;SDS011;17947;50.672;6.076;2022-12-04T19:58:26;10.90;;;6.63;;
24137;SDS011;17947;50.672;6.076;2022-12-04T20:00:55;9.98;;;6.47;;
24137;SDS011;17947;50.672;6.076;2022-12-04T20:03:21;9.88;;;6.47;;
24137;SDS011;17947;50.672;6.076;2022-12-04T20:05:47;8.82;;;6.00;;
24137;SDS011;17947;50.672;6.076;2022-12-04T20:08:14;12.88;;;6.75;;
24137;SDS011;17947;50.672;6.076;2022-12-04T20:10:40;8.48;;;6.10;;
24137;SDS011;17947;50.672;6.076;2022-12-04T20:13:06;8.90;;;6.30;;
24137;SDS011;17947;50.672;6.076;2022-12-04T20:15:35;7.68;;;5.93;;
24137;SDS011;17947;50.672;6.076;2022-12-04T20:18:01;7.78;;;5.80;;
24137;SDS011;17947;50.672;6.076;2022-12-04T20:20:28;8.70;;;5.70;;
24137;SDS011;17947;50.672;6.076;2022-12-04T20:22:54;8.70;;;5.55;;
24137;SDS011;17947;50.672;6.076;2022-12-04T20:25:20;8.93;;;5.85;;
24137;SDS011;17947;50.672;6.076;2022-12-04T20:27:46;8.40;;;5.82;;
24137;SDS011;17947;50.672;6.076;2022-12-04T20:30:12;8.43;;;5.63;;
24137;SDS011;17947;50.672;6.076;2022-12-04T20:32:38;9.05;;;5.13;;
24137;SDS011;17947;50.672;6.076;2022-12-04T20:35:05;7.68;;;5.20;;
24137;SDS011;17947;50.672;6.076;2022-12-04T20:37:31;8.15;;;5.55;;
24137;SDS011;17947;50.672;6.076;2022-12-04T20:39:57;8.02;;;5.57;;
24137;SDS011;17947;50.672;6.076;2022-12-04T20:42:26;8.48;;;5.70;;
24137;SDS011;17947;50.672;6.076;2022-12-04T20:44:52;8.20;;;6.05;;
24137;SDS011;17947;50.672;6.076;2022-12-04T20:47:19;8.90;;;5.80;;
24137;SDS011;17947;50.672;6.076;2022-12-04T20:49:46;8.75;;;5.53;;
24137;SDS011;17947;50.672;6.076;2022-12-04T20:52:12;8.20;;;5.07;;
24137;SDS011;17947;50.672;6.076;2022-12-04T20:54:38;8.43;;;5.60;;
24137;SDS011;17947;50.672;6.076;2022-12-04T20:57:04;6.78;;;4.93;;
24137;SDS011;17947;50.672;6.076;2022-12-04T20:59:30;8.63;;;5.55;;
24137;SDS011;17947;50.672;6.076;2022-12-04T21:01:56;8.05;;;5.20;;
24137;SDS011;17947;50.672;6.076;2022-12-04T21:04:23;8.27;;;5.13;;
24137;SDS011;17947;50.672;6.076;2022-12-04T21:06:49;7.10;;;5.28;;
24137;SDS011;17947;50.672;6.076;2022-12-04T21:09:16;6.15;;;4.70;;
24137;SDS011;17947;50.672;6.076;2022-12-04T21:11:44;7.05;;;4.80;;
24137;SDS011;17947;50.672;6.076;2022-12-04T21:14:14;7.45;;;5.05;;
24137;SDS011;17947;50.672;6.076;2022-12-04T21:16:59;10.15;;;5.50;;
24137;SDS011;17947;50.672;6.076;2022-12-04T21:19:25;9.57;;;5.70;;
24137;SDS011;17947;50.672;6.076;2022-12-04T21:21:52;10.27;;;5.43;;
24137;SDS011;17947;50.672;6.076;2022-12-04T21:24:18;9.57;;;6.20;;
24137;SDS011;17947;50.672;6.076;2022-12-04T21:26:45;7.72;;;5.22;;
24137;SDS011;17947;50.672;6.076;2022-12-04T21:29:11;6.90;;;4.85;;
24137;SDS011;17947;50.672;6.076;2022-12-04T21:31:38;8.85;;;5.10;;
24137;SDS011;17947;50.672;6.076;2022-12-04T21:34:05;6.72;;;4.95;;
24137;SDS011;17947;50.672;6.076;2022-12-04T21:36:32;8.23;;;5.20;;
24137;SDS011;17947;50.672;6.076;2022-12-04T21:38:58;6.28;;;4.88;;
24137;SDS011;17947;50.672;6.076;2022-12-04T21:41:24;7.43;;;5.30;;
24137;SDS011;17947;50.672;6.076;2022-12-04T21:44:10;6.95;;;4.75;;
24137;SDS011;17947;50.672;6.076;2022-12-04T21:46:36;7.07;;;4.90;;
24137;SDS011;17947;50.672;6.076;2022-12-04T21:49:03;7.07;;;4.93;;
24137;SDS011;17947;50.672;6.076;2022-12-04T21:51:29;6.43;;;4.78;;
24137;SDS011;17947;50.672;6.076;2022-12-04T21:53:56;6.40;;;4.90;;
24137;SDS011;17947;50.672;6.076;2022-12-04T21:56:24;8.00;;;4.93;;
24137;SDS011;17947;50.672;6.076;2022-12-04T21:58:50;6.78;;;4.82;;
24137;SDS011;17947;50.672;6.076;2022-12-04T22:01:17;7.55;;;4.88;;
24137;SDS011;17947;50.672;6.076;2022-12-04T22:03:44;8.02;;;4.95;;
24137;SDS011;17947;50.672;6.076;2022-12-04T22:06:10;6.07;;;4.72;;
24137;SDS011;17947;50.672;6.076;2022-12-04T22:08:37;8.27;;;5.22;;
24137;SDS011;17947;50.672;6.076;2022-12-04T22:11:04;6.63;;;4.68;;
24137;SDS011;17947;50.672;6.076;2022-12-04T22:13:31;7.30;;;5.10;;
24137;SDS011;17947;50.672;6.076;2022-12-04T22:16:00;6.90;;;4.35;;
24137;SDS011;17947;50.672;6.076;2022-12-04T22:18:27;7.60;;;4.47;;
24137;SDS011;17947;50.672;6.076;2022-12-04T22:20:53;6.50;;;4.85;;
24137;SDS011;17947;50.672;6.076;2022-12-04T22:23:29;6.32;;;4.43;;
24137;SDS011;17947;50.672;6.076;2022-12-04T22:25:55;6.22;;;4.47;;
24137;SDS011;17947;50.672;6.076;2022-12-04T22:28:21;7.03;;;4.53;;
24137;SDS011;17947;50.672;6.076;2022-12-04T22:30:47;6.50;;;4.80;;
24137;SDS011;17947;50.672;6.076;2022-12-04T22:33:13;6.13;;;4.15;;
24137;SDS011;17947;50.672;6.076;2022-12-04T22:35:39;5.63;;;4.15;;
24137;SDS011;17947;50.672;6.076;2022-12-04T22:38:05;7.20;;;4.65;;
24137;SDS011;17947;50.672;6.076;2022-12-04T22:40:31;5.32;;;4.22;;
24137;SDS011;17947;50.672;6.076;2022-12-04T22:42:58;6.03;;;4.50;;
24137;SDS011;17947;50.672;6.076;2022-12-04T22:45:24;5.90;;;4.20;;
24137;SDS011;17947;50.672;6.076;2022-12-04T22:47:51;5.72;;;4.10;;
24137;SDS011;17947;50.672;6.076;2022-12-04T22:50:17;5.07;;;3.80;;
24137;SDS011;17947;50.672;6.076;2022-12-04T22:52:43;5.40;;;4.03;;
24137;SDS011;17947;50.672;6.076;2022-12-04T22:55:09;6.20;;;4.13;;
24137;SDS011;17947;50.672;6.076;2022-12-04T22:57:36;5.38;;;4.15;;
24137;SDS011;17947;50.672;6.076;2022-12-04T23:00:02;5.78;;;4.00;;
24137;SDS011;17947;50.672;6.076;2022-12-04T23:02:28;4.93;;;3.67;;
24137;SDS011;17947;50.672;6.076;2022-12-04T23:04:55;6.00;;;4.07;;
24137;SDS011;17947;50.672;6.076;2022-12-04T23:07:21;4.65;;;3.45;;
24137;SDS011;17947;50.672;6.076;2022-12-04T23:09:47;5.05;;;3.72;;
24137;SDS011;17947;50.672;6.076;2022-12-04T23:12:13;4.57;;;3.63;;
24137;SDS011;17947;50.672;6.076;2022-12-04T23:14:40;5.63;;;3.63;;
24137;SDS011;17947;50.672;6.076;2022-12-04T23:17:06;4.18;;;3.40;;
24137;SDS011;17947;50.672;6.076;2022-12-04T23:19:32;4.35;;;3.65;;
24137;SDS011;17947;50.672;6.076;2022-12-04T23:21:59;4.22;;;3.67;;
24137;SDS011;17947;50.672;6.076;2022-12-04T23:24:25;4.70;;;3.55;;
24137;SDS011;17947;50.672;6.076;2022-12-04T23:26:52;5.50;;;4.00;;
24137;SDS011;17947;50.672;6.076;2022-12-04T23:29:19;4.68;;;3.47;;
24137;SDS011;17947;50.672;6.076;2022-12-04T23:31:45;5.03;;;3.65;;
24137;SDS011;17947;50.672;6.076;2022-12-04T23:34:11;5.00;;;3.40;;
24137;SDS011;17947;50.672;6.076;2022-12-04T23:36:37;4.63;;;3.20;;
24137;SDS011;17947;50.672;6.076;2022-12-04T23:39:03;4.85;;;3.65;;
24137;SDS011;17947;50.672;6.076;2022-12-04T23:41:29;5.72;;;3.88;;
24137;SDS011;17947;50.672;6.076;2022-12-04T23:43:56;4.65;;;3.22;;
24137;SDS011;17947;50.672;6.076;2022-12-04T23:46:29;4.28;;;3.22;;
24137;SDS011;17947;50.672;6.076;2022-12-04T23:48:57;4.13;;;3.38;;
24137;SDS011;17947;50.672;6.076;2022-12-04T23:51:23;3.45;;;3.10;;
24137;SDS011;17947;50.672;6.076;2022-12-04T23:53:49;4.25;;;3.50;;
24137;SDS011;17947;50.672;6.076;2022-12-04T23:58:42;5.50;;;3.10;;
